Time;durP1;ratioP1;P1;durP2;ratioP2;P2;SDS_P1;SDS_P2;PMS_P1;PMS_P2;Temp;Humidity;BMP_temperature;BMP_pressure;BME280_temperature;BME280_humidity;BME280_pressure;Samples;Min_cycle;Max_cycle;Signal;HPM_P1;HPM_P2
2023/03/24 00:02:17;;;;;;;81.07;14.27;;;17.90;77.10;;;;;;5077960;28;20029;-56
2023/03/24 00:04:43;;;;;;;62.38;12.35;;;17.90;77.00;;;;;;5045731;28;20144;-56
2023/03/24 00:07:13;;;;;;;56.08;11.65;;;17.90;77.00;;;;;;5044625;28;20037;-56
2023/03/24 00:09:39;;;;;;;58.15;11.52;;;17.90;77.10;;;;;;5060723;28;20033;-56
2023/03/24 00:12:05;;;;;;;60.53;11.68;;;17.90;77.10;;;;;;5044511;28;20022;-56
2023/03/24 00:14:31;;;;;;;61.55;11.65;;;17.80;77.10;;;;;;5044443;28;20085;-56
2023/03/24 00:16:58;;;;;;;61.95;12.02;;;17.80;77.10;;;;;;5077854;28;20036;-56
2023/03/24 00:19:24;;;;;;;50.50;10.43;;;17.80;77.20;;;;;;5045587;28;20096;-56
2023/03/24 00:21:49;;;;;;;55.42;10.75;;;17.70;77.20;;;;;;5044578;28;20034;-56
2023/03/24 00:24:15;;;;;;;53.50;10.00;;;17.80;77.30;;;;;;5045811;28;20155;-56
2023/03/24 00:26:40;;;;;;;62.60;11.07;;;17.70;77.30;;;;;;5044195;28;20030;-56
2023/03/24 00:29:08;;;;;;;43.85;10.98;;;17.70;77.30;;;;;;5077375;28;20033;-56
2023/03/24 00:31:33;;;;;;;43.85;9.85;;;17.70;77.40;;;;;;5060244;28;20093;-56
2023/03/24 00:34:01;;;;;;;50.95;10.38;;;17.70;78.00;;;;;;5044133;28;20034;-56
2023/03/24 00:36:28;;;;;;;43.75;9.48;;;17.70;77.50;;;;;;5044226;28;20060;-56
2023/03/24 00:38:53;;;;;;;44.75;9.48;;;17.70;77.40;;;;;;5043947;28;20033;-56
2023/03/24 00:41:19;;;;;;;40.45;9.15;;;17.70;77.50;;;;;;5044032;28;20127;-56
2023/03/24 00:43:46;;;;;;;38.00;8.57;;;17.70;77.60;;;;;;5043723;28;20041;-56
2023/03/24 00:46:26;;;;;;;26.95;7.57;;;17.70;78.20;;;;;;5060441;28;20041;-56
2023/03/24 00:49:00;;;;;;;46.72;9.02;;;17.70;77.40;;;;;;5044224;28;20034;-56
2023/03/24 00:51:30;;;;;;;36.43;8.53;;;17.60;77.20;;;;;;5043714;28;20356;-56
2023/03/24 00:53:56;;;;;;;41.72;8.93;;;17.60;77.30;;;;;;5043827;28;20033;-56
2023/03/24 00:56:23;;;;;;;36.10;8.02;;;17.60;77.40;;;;;;5043777;28;20032;-57
2023/03/24 00:58:49;;;;;;;33.25;8.43;;;17.50;77.30;;;;;;5044573;28;20037;-57
2023/03/24 01:01:14;;;;;;;41.40;8.30;;;17.50;77.50;;;;;;5043657;28;20040;-57
2023/03/24 01:03:49;;;;;;;27.10;7.28;;;17.50;77.60;;;;;;5043593;28;20021;-57
2023/03/24 01:06:15;;;;;;;33.43;7.87;;;17.50;77.60;;;;;;5044900;28;20025;-57
2023/03/24 01:08:41;;;;;;;31.58;7.10;;;17.50;77.70;;;;;;5043686;28;20033;-57
2023/03/24 01:11:06;;;;;;;30.13;7.82;;;17.50;77.70;;;;;;5043415;28;20029;-57
2023/03/24 01:13:33;;;;;;;29.33;7.63;;;17.40;77.70;;;;;;5043454;28;20044;-57
2023/03/24 01:15:58;;;;;;;28.25;6.85;;;17.40;77.70;;;;;;5043510;28;20034;-57
2023/03/24 01:18:24;;;;;;;32.67;7.43;;;17.40;77.70;;;;;;5044736;28;20072;-57
2023/03/24 01:20:50;;;;;;;29.98;6.90;;;17.40;77.70;;;;;;5059973;28;20049;-57
2023/03/24 01:23:21;;;;;;;28.70;6.97;;;17.40;78.40;;;;;;5044644;28;20022;-57
2023/03/24 01:25:47;;;;;;;27.08;6.68;;;17.40;77.80;;;;;;5043527;28;20033;-57
2023/03/24 01:28:14;;;;;;;28.10;6.72;;;17.30;77.90;;;;;;5043415;28;20033;-57
2023/03/24 01:30:40;;;;;;;24.90;6.82;;;17.30;78.00;;;;;;5043230;28;20033;-57
2023/03/24 01:33:05;;;;;;;22.00;6.15;;;17.30;78.00;;;;;;5044868;28;20040;-57
2023/03/24 01:35:31;;;;;;;20.38;6.05;;;17.30;78.10;;;;;;5043050;28;20048;-57
2023/03/24 01:37:57;;;;;;;19.70;5.55;;;17.30;77.90;;;;;;5044608;28;20072;-57
2023/03/24 01:40:28;;;;;;;27.98;5.63;;;17.30;77.90;;;;;;5043380;28;20111;-57
2023/03/24 01:42:53;;;;;;;19.48;6.13;;;17.30;77.90;;;;;;5043245;28;20455;-57
2023/03/24 01:45:40;;;;;;;19.90;5.68;;;17.30;77.90;;;;;;5043062;28;20033;-57
2023/03/24 01:48:21;;;;;;;20.13;5.95;;;17.20;77.90;;;;;;5044721;28;20026;-57
2023/03/24 01:51:20;;;;;;;22.35;6.18;;;17.30;78.10;;;;;;5044281;28;20057;-57
2023/03/24 01:53:56;;;;;;;22.23;5.57;;;17.20;78.00;;;;;;5044399;28;20055;-57
2023/03/24 01:56:22;;;;;;;19.50;6.45;;;17.20;78.10;;;;;;5042949;28;20018;-58
2023/03/24 01:58:52;;;;;;;18.80;6.43;;;17.20;78.20;;;;;;5043011;28;20041;-57
2023/03/24 02:01:17;;;;;;;23.15;6.70;;;17.20;78.20;;;;;;5043281;28;20098;-57
2023/03/24 02:03:44;;;;;;;16.73;7.10;;;17.20;78.20;;;;;;5042781;28;20025;-57
2023/03/24 02:06:10;;;;;;;17.15;6.45;;;17.10;78.30;;;;;;5044553;28;20199;-57
2023/03/24 02:08:41;;;;;;;17.67;6.03;;;17.10;78.30;;;;;;5046920;28;20235;-57
2023/03/24 02:11:06;;;;;;;15.88;6.03;;;17.10;78.30;;;;;;5046800;28;20037;-57
2023/03/24 02:13:32;;;;;;;18.60;5.68;;;17.10;78.40;;;;;;5046801;28;20037;-57
2023/03/24 02:16:12;;;;;;;16.77;5.82;;;17.10;78.30;;;;;;5046872;28;20179;-57
2023/03/24 02:18:43;;;;;;;17.25;5.85;;;17.10;78.40;;;;;;5047922;28;20093;-57
2023/03/24 02:21:33;;;;;;;15.70;6.10;;;17.10;78.50;;;;;;5079516;28;20034;-57
2023/03/24 02:24:11;;;;;;;13.93;6.93;;;17.00;78.50;;;;;;5047919;28;20071;-57
2023/03/24 02:27:02;;;;;;;14.23;6.50;;;17.00;78.40;;;;;;5046663;28;20026;-57
2023/03/24 02:29:49;;;;;;;18.95;7.00;;;17.00;78.60;;;;;;5046097;28;20063;-57
2023/03/24 02:32:30;;;;;;;15.82;5.75;;;17.00;78.60;;;;;;5046237;28;20099;-57
2023/03/24 02:35:22;;;;;;;16.67;5.80;;;17.10;79.50;;;;;;5030743;28;20037;-57
2023/03/24 02:38:21;;;;;;;11.82;5.93;;;17.10;78.60;;;;;;5029637;28;20097;-57
2023/03/24 02:41:14;;;;;;;13.48;5.32;;;17.10;78.60;;;;;;5047493;28;20030;-57
2023/03/24 02:43:53;;;;;;;11.95;5.38;;;17.00;78.70;;;;;;5047939;28;20041;-57
2023/03/24 02:46:26;;;;;;;10.88;5.43;;;17.00;78.90;;;;;;5047545;28;20151;-57
2023/03/24 02:49:18;;;;;;;15.93;5.65;;;17.00;79.00;;;;;;5029618;28;20041;-57
2023/03/24 02:52:00;;;;;;;10.52;5.57;;;16.90;79.00;;;;;;5046048;28;20048;-57
2023/03/24 02:54:32;;;;;;;10.80;5.38;;;16.90;79.90;;;;;;5046228;28;20041;-57
2023/03/24 02:57:27;;;;;;;13.20;5.15;;;16.90;79.20;;;;;;5045687;28;20117;-57
2023/03/24 03:00:08;;;;;;;12.10;4.85;;;16.90;79.30;;;;;;5047471;28;20063;-57
2023/03/24 03:02:36;;;;;;;11.75;5.43;;;16.90;79.40;;;;;;5045971;28;20040;-57
2023/03/24 03:05:05;;;;;;;11.48;7.97;;;16.90;79.50;;;;;;5045756;28;20033;-57
2023/03/24 03:07:36;;;;;;;20.02;8.20;;;16.90;79.60;;;;;;5045287;28;20132;-57
2023/03/24 03:10:06;;;;;;;11.88;7.22;;;16.90;79.70;;;;;;5045935;28;20064;-57
2023/03/24 03:12:33;;;;;;;9.25;6.35;;;16.80;79.80;;;;;;5045737;28;20110;-57
2023/03/24 03:15:13;;;;;;;11.93;6.45;;;16.80;79.80;;;;;;5045566;28;20025;-57
2023/03/24 03:17:41;;;;;;;13.50;6.28;;;16.80;79.90;;;;;;5044369;28;20107;-57
2023/03/24 03:20:13;;;;;;;12.75;5.90;;;16.80;80.00;;;;;;5045634;28;20104;-57
2023/03/24 03:22:51;;;;;;;13.77;6.20;;;16.80;80.10;;;;;;5051176;28;20044;-57
2023/03/24 03:25:22;;;;;;;12.18;6.65;;;16.80;80.20;;;;;;5049080;28;20081;-57
2023/03/24 03:27:48;;;;;;;19.80;6.60;;;16.80;80.20;;;;;;5049308;28;20086;-58
2023/03/24 03:30:22;;;;;;;16.23;7.18;;;16.80;80.20;;;;;;5065231;28;20077;-57
2023/03/24 03:32:52;;;;;;;17.35;6.78;;;16.80;80.90;;;;;;5048960;28;20033;-57
2023/03/24 03:35:32;;;;;;;16.38;6.80;;;16.80;80.30;;;;;;5065488;28;20025;-57
2023/03/24 03:38:19;;;;;;;17.98;7.53;;;16.80;80.30;;;;;;5065256;28;20032;-57
2023/03/24 03:40:50;;;;;;;17.13;8.82;;;16.80;80.40;;;;;;5065021;28;20086;-57
2023/03/24 03:43:16;;;;;;;15.55;7.45;;;16.80;80.40;;;;;;5048284;28;20040;-57
2023/03/24 03:45:41;;;;;;;19.92;8.77;;;16.70;80.50;;;;;;5065103;28;20029;-57
2023/03/24 03:48:07;;;;;;;16.63;8.18;;;16.70;80.80;;;;;;5065099;28;20068;-57
2023/03/24 03:50:32;;;;;;;16.75;7.88;;;16.70;80.90;;;;;;5064874;28;20033;-57
2023/03/24 03:52:59;;;;;;;17.65;8.15;;;16.70;80.80;;;;;;5065121;28;20484;-57
2023/03/24 03:55:25;;;;;;;15.45;7.57;;;16.80;80.90;;;;;;5066588;28;20040;-57
2023/03/24 03:57:51;;;;;;;16.08;7.28;;;16.70;80.90;;;;;;5064713;28;20029;-57
2023/03/24 04:00:18;;;;;;;17.05;7.55;;;16.70;80.90;;;;;;5047998;28;20083;-57
2023/03/24 04:03:05;;;;;;;17.52;7.88;;;16.70;81.00;;;;;;5031864;28;20025;-57
2023/03/24 04:05:34;;;;;;;14.55;7.20;;;16.70;81.10;;;;;;5066119;28;20025;-57
2023/03/24 04:08:25;;;;;;;13.73;6.57;;;16.70;81.20;;;;;;5064435;28;20051;-57
2023/03/24 04:11:15;;;;;;;12.88;6.38;;;16.70;81.30;;;;;;5064679;28;20040;-57
2023/03/24 04:13:46;;;;;;;15.73;6.95;;;16.60;81.20;;;;;;5065891;28;20035;-57
2023/03/24 04:16:26;;;;;;;14.60;6.25;;;16.60;81.30;;;;;;5064255;28;20032;-57
2023/03/24 04:19:07;;;;;;;16.58;6.13;;;16.60;81.30;;;;;;5032253;28;20033;-57
2023/03/24 04:21:47;;;;;;;14.65;7.00;;;16.60;81.40;;;;;;5064302;28;20043;-57
2023/03/24 04:24:54;;;;;;;13.27;6.20;;;16.60;81.30;;;;;;5064458;28;20033;-57
2023/03/24 04:27:59;;;;;;;14.50;5.90;;;16.60;81.30;;;;;;5055305;28;20156;-57
2023/03/24 04:30:39;;;;;;;17.63;6.78;;;16.60;81.30;;;;;;5057830;28;20037;-57
2023/03/24 04:33:30;;;;;;;22.85;7.40;;;16.60;81.40;;;;;;5064127;28;20033;-57
2023/03/24 04:36:17;;;;;;;62.55;10.70;;;16.60;81.40;;;;;;5063983;28;20055;-57
2023/03/24 04:38:45;;;;;;;37.30;8.00;;;16.50;81.40;;;;;;5061547;28;20106;-57
2023/03/24 04:41:11;;;;;;;40.22;8.52;;;16.50;82.00;;;;;;5047592;28;20052;-57
2023/03/24 04:43:37;;;;;;;38.95;8.20;;;16.50;81.30;;;;;;5047358;28;20040;-57
2023/03/24 04:46:03;;;;;;;43.80;8.98;;;16.50;81.30;;;;;;5047565;28;20025;-57
2023/03/24 04:48:29;;;;;;;42.65;8.70;;;16.50;81.30;;;;;;5047238;28;20032;-57
2023/03/24 04:50:57;;;;;;;43.88;8.95;;;16.50;81.90;;;;;;5063620;28;20060;-57
2023/03/24 04:53:22;;;;;;;45.15;8.48;;;16.50;81.90;;;;;;5047139;28;20099;-57
2023/03/24 04:55:59;;;;;;;33.45;7.75;;;16.50;81.20;;;;;;5063805;28;20111;-57
2023/03/24 04:58:25;;;;;;;37.65;8.32;;;16.50;81.20;;;;;;5063595;28;20071;-58
2023/03/24 05:00:51;;;;;;;28.55;7.22;;;16.50;81.20;;;;;;5063853;28;20025;-57
2023/03/24 05:03:16;;;;;;;28.35;7.60;;;16.50;81.30;;;;;;5065244;28;20033;-57
2023/03/24 05:05:43;;;;;;;33.03;7.32;;;16.50;81.20;;;;;;5047079;28;20056;-57
2023/03/24 05:08:09;;;;;;;28.35;6.65;;;16.50;81.20;;;;;;5063577;28;20029;-57
2023/03/24 05:10:35;;;;;;;30.20;6.78;;;16.50;81.20;;;;;;5046898;28;20422;-58
2023/03/24 05:13:01;;;;;;;40.33;6.90;;;16.40;81.20;;;;;;5046790;28;20028;-57
2023/03/24 05:15:27;;;;;;;25.33;6.88;;;16.40;81.30;;;;;;5063839;28;20096;-55
2023/03/24 05:17:52;;;;;;;25.92;6.32;;;16.40;81.30;;;;;;5063284;28;20033;-56
2023/03/24 05:20:18;;;;;;;32.60;5.95;;;16.40;81.30;;;;;;5063540;28;20031;-56
2023/03/24 05:22:43;;;;;;;23.35;5.78;;;16.40;81.20;;;;;;5046676;28;20507;-56
2023/03/24 05:25:09;;;;;;;22.30;6.15;;;16.50;81.40;;;;;;5046800;28;20029;-56
2023/03/24 05:27:35;;;;;;;16.33;5.90;;;16.40;81.40;;;;;;5063239;28;20029;-56
2023/03/24 05:30:00;;;;;;;18.88;5.57;;;16.40;81.40;;;;;;5046752;28;20449;-56
2023/03/24 05:32:26;;;;;;;26.90;6.18;;;16.40;82.10;;;;;;5063218;28;20029;-56
2023/03/24 05:34:51;;;;;;;12.93;5.32;;;16.40;81.50;;;;;;5063177;28;20074;-56
2023/03/24 05:37:17;;;;;;;27.95;6.10;;;16.40;82.10;;;;;;5064358;28;20040;-57
2023/03/24 05:39:43;;;;;;;25.48;5.97;;;16.40;81.60;;;;;;5064577;28;20029;-56
2023/03/24 05:42:09;;;;;;;21.98;5.20;;;16.40;81.60;;;;;;5067948;28;20036;-56
2023/03/24 05:44:34;;;;;;;20.27;5.38;;;16.40;81.70;;;;;;5067381;28;20021;-56
2023/03/24 05:47:00;;;;;;;15.30;4.82;;;16.40;81.80;;;;;;5068666;28;20029;-56
2023/03/24 05:49:25;;;;;;;23.23;5.82;;;16.30;81.80;;;;;;5050654;28;20032;-56
2023/03/24 05:51:51;;;;;;;18.23;5.55;;;16.30;81.80;;;;;;5050399;28;20030;-56
2023/03/24 05:54:16;;;;;;;24.15;5.57;;;16.30;81.80;;;;;;5067246;28;20059;-56
2023/03/24 05:56:42;;;;;;;18.48;5.68;;;16.30;81.80;;;;;;5068466;28;20291;-56
2023/03/24 05:59:08;;;;;;;18.25;5.70;;;16.30;82.20;;;;;;5068458;28;20480;-55
2023/03/24 06:01:33;;;;;;;17.70;5.03;;;16.40;82.20;;;;;;5067088;28;20025;-55
2023/03/24 06:03:59;;;;;;;18.52;4.90;;;16.30;82.10;;;;;;5066880;28;20125;-56
2023/03/24 06:06:25;;;;;;;17.42;4.60;;;16.30;82.20;;;;;;5068303;28;20025;-56
2023/03/24 06:08:53;;;;;;;11.02;4.78;;;16.40;82.40;;;;;;5067667;28;20101;-56
2023/03/24 06:11:19;;;;;;;14.45;4.82;;;16.30;82.40;;;;;;5071630;28;20033;-56
2023/03/24 06:13:44;;;;;;;14.35;4.50;;;16.30;82.50;;;;;;5067109;28;20115;-56
2023/03/24 06:16:10;;;;;;;14.90;4.97;;;16.30;83.20;;;;;;5068240;28;20033;-56
2023/03/24 06:18:39;;;;;;;13.02;4.78;;;16.40;82.60;;;;;;5066595;28;20029;-56
2023/03/24 06:21:05;;;;;;;12.60;4.47;;;16.40;82.50;;;;;;5066713;28;20409;-55
2023/03/24 06:23:32;;;;;;;13.57;4.65;;;16.40;82.50;;;;;;5068004;28;20025;-56
2023/03/24 06:26:00;;;;;;;8.80;3.53;;;16.30;82.50;;;;;;5066677;28;20031;-56
2023/03/24 06:28:29;;;;;;;12.85;4.55;;;16.30;82.50;;;;;;5050067;28;20039;-56
2023/03/24 06:30:55;;;;;;;16.02;4.70;;;16.30;83.20;;;;;;5067669;28;20418;-56
2023/03/24 06:33:24;;;;;;;10.95;3.85;;;16.30;82.60;;;;;;5066402;28;20039;-56
2023/03/24 06:35:52;;;;;;;18.73;4.53;;;16.30;82.70;;;;;;5050396;28;20033;-56
2023/03/24 06:38:18;;;;;;;13.23;4.13;;;16.30;82.80;;;;;;5066373;28;20092;-56
2023/03/24 06:40:44;;;;;;;7.85;3.40;;;16.30;82.90;;;;;;5066403;28;20048;-56
2023/03/24 06:43:09;;;;;;;13.65;3.90;;;16.30;83.10;;;;;;5067849;28;20109;-56
2023/03/24 06:45:38;;;;;;;6.45;3.40;;;16.30;83.00;;;;;;5066299;28;20025;-56
2023/03/24 06:48:03;;;;;;;19.23;4.80;;;16.30;83.00;;;;;;5046411;28;20032;-56
2023/03/24 06:50:32;;;;;;;10.23;4.45;;;16.30;83.20;;;;;;5047622;28;20038;-55
2023/03/24 06:52:58;;;;;;;11.98;4.07;;;16.30;83.20;;;;;;5046371;28;20030;-56
2023/03/24 06:55:25;;;;;;;14.30;4.03;;;16.30;83.30;;;;;;5046213;28;20029;-56
2023/03/24 06:57:50;;;;;;;9.05;3.67;;;16.30;83.20;;;;;;5047608;28;20082;-56
2023/03/24 07:00:16;;;;;;;11.10;3.58;;;16.30;83.30;;;;;;5046221;28;20026;-56
2023/03/24 07:02:42;;;;;;;13.35;4.30;;;16.30;83.20;;;;;;5047846;28;20026;-56
2023/03/24 07:05:09;;;;;;;10.35;3.45;;;16.30;83.30;;;;;;5047622;28;20033;-56
2023/03/24 07:07:35;;;;;;;12.43;3.80;;;16.30;83.30;;;;;;5046248;28;20017;-56
2023/03/24 07:10:02;;;;;;;13.60;3.75;;;16.30;83.30;;;;;;5046097;28;20084;-56
2023/03/24 07:12:28;;;;;;;9.98;3.83;;;16.30;83.40;;;;;;5045763;28;20105;-55
2023/03/24 07:14:54;;;;;;;17.63;3.80;;;16.30;83.50;;;;;;5029169;28;20087;-56
2023/03/24 07:17:20;;;;;;;14.98;3.58;;;16.30;83.40;;;;;;5045616;28;20022;-56
2023/03/24 07:19:45;;;;;;;12.50;3.58;;;16.30;83.40;;;;;;5046120;28;20044;-56
2023/03/24 07:22:11;;;;;;;13.25;3.20;;;16.30;83.50;;;;;;5045959;28;20113;-56
2023/03/24 07:24:37;;;;;;;15.55;4.50;;;16.30;83.40;;;;;;5013083;28;20540;-56
2023/03/24 07:27:02;;;;;;;29.77;5.35;;;16.30;83.50;;;;;;5046863;28;20064;-56
2023/03/24 07:29:28;;;;;;;18.20;4.15;;;16.30;83.90;;;;;;5028867;28;20121;-56
2023/03/24 07:31:57;;;;;;;20.40;4.00;;;16.30;83.80;;;;;;5046359;28;20025;-56
2023/03/24 07:34:24;;;;;;;14.15;3.72;;;16.30;83.80;;;;;;5028876;28;20045;-56
2023/03/24 07:36:50;;;;;;;10.43;3.47;;;16.30;83.80;;;;;;5039264;28;20056;-56
2023/03/24 07:39:16;;;;;;;8.10;3.65;;;16.30;84.60;;;;;;5040923;28;20030;-56
2023/03/24 07:41:41;;;;;;;9.60;3.45;;;16.30;84.00;;;;;;5026187;28;20030;-56
2023/03/24 07:44:07;;;;;;;19.45;3.60;;;16.30;84.70;;;;;;5039916;28;20018;-56
2023/03/24 07:46:33;;;;;;;11.50;3.78;;;16.30;84.10;;;;;;5026402;28;20052;-56
2023/03/24 07:48:58;;;;;;;14.45;3.88;;;16.30;84.10;;;;;;5041157;28;20034;-56
2023/03/24 07:51:24;;;;;;;19.98;4.05;;;16.30;84.10;;;;;;5026251;28;20046;-56
2023/03/24 07:53:50;;;;;;;20.10;4.65;;;16.30;84.10;;;;;;5033066;28;20033;-56
2023/03/24 07:56:15;;;;;;;19.92;4.15;;;16.30;84.20;;;;;;5045578;28;20037;-56
2023/03/24 07:58:41;;;;;;;29.27;5.38;;;16.30;84.20;;;;;;5054714;28;20097;-56
2023/03/24 08:01:09;;;;;;;19.77;4.13;;;16.30;84.40;;;;;;5041686;28;20029;-56
2023/03/24 08:03:39;;;;;;;18.80;4.07;;;16.30;84.40;;;;;;5043720;28;20033;-56
2023/03/24 08:06:05;;;;;;;21.00;4.75;;;16.30;84.40;;;;;;5050249;28;20021;-56
2023/03/24 08:08:31;;;;;;;30.98;4.00;;;16.30;84.60;;;;;;5041991;28;20034;-56
2023/03/24 08:10:57;;;;;;;24.35;4.72;;;16.40;84.60;;;;;;5062976;28;20040;-56
2023/03/24 08:13:23;;;;;;;42.53;5.97;;;16.40;84.60;;;;;;5064073;28;20522;-56
2023/03/24 08:15:48;;;;;;;26.85;4.78;;;16.40;84.70;;;;;;5061917;28;20033;-56
2023/03/24 08:18:14;;;;;;;37.60;5.82;;;16.40;84.90;;;;;;5062232;28;20067;-56
2023/03/24 08:20:40;;;;;;;73.65;9.02;;;16.40;84.60;;;;;;5063769;28;20029;-56
2023/03/24 08:23:07;;;;;;;48.13;7.47;;;16.40;84.90;;;;;;5044106;28;20160;-56
2023/03/24 08:25:32;;;;;;;54.13;8.50;;;16.40;85.90;;;;;;5044245;28;20029;-56
2023/03/24 08:27:58;;;;;;;102.95;13.38;;;16.40;85.10;;;;;;5064860;28;20029;-56
2023/03/24 08:30:24;;;;;;;92.55;11.77;;;16.40;85.40;;;;;;5043039;28;20378;-56
2023/03/24 08:32:52;;;;;;;84.32;9.95;;;16.40;85.40;;;;;;5045125;28;20033;-56
2023/03/24 08:35:19;;;;;;;95.35;13.52;;;16.40;85.20;;;;;;5058425;28;20036;-56
2023/03/24 08:37:45;;;;;;;70.68;9.48;;;16.40;85.30;;;;;;5051965;28;20037;-56
2023/03/24 08:40:16;;;;;;;76.20;9.63;;;16.40;85.40;;;;;;5051056;28;20032;-56
2023/03/24 08:42:41;;;;;;;82.35;11.65;;;16.50;86.20;;;;;;5058340;28;20020;-56
2023/03/24 08:45:08;;;;;;;95.10;11.13;;;16.40;85.50;;;;;;5023227;28;20029;-56
2023/03/24 08:47:34;;;;;;;84.57;12.05;;;16.50;85.70;;;;;;5066979;28;20032;-56
2023/03/24 08:49:59;;;;;;;94.38;12.48;;;16.50;85.70;;;;;;5046588;28;20034;-56
2023/03/24 08:52:25;;;;;;;101.38;13.20;;;16.50;85.90;;;;;;5044767;28;20060;-56
2023/03/24 08:54:51;;;;;;;102.90;12.98;;;16.50;85.90;;;;;;5077736;28;20540;-56
2023/03/24 08:57:16;;;;;;;63.42;8.48;;;16.50;86.00;;;;;;5064397;28;20365;-56
2023/03/24 08:59:42;;;;;;;53.70;8.77;;;16.50;86.10;;;;;;5044370;28;20127;-56
2023/03/24 09:02:11;;;;;;;62.30;9.02;;;16.50;86.00;;;;;;5054640;28;20504;-55
2023/03/24 09:04:37;;;;;;;59.97;9.13;;;16.60;86.30;;;;;;5051279;28;20103;-56
2023/03/24 09:07:02;;;;;;;77.57;10.07;;;16.60;86.30;;;;;;5046146;28;20035;-56
2023/03/24 09:09:29;;;;;;;83.18;11.20;;;16.60;86.70;;;;;;5044521;28;20030;-55
2023/03/24 09:11:54;;;;;;;72.32;12.07;;;16.70;86.80;;;;;;5043368;28;20025;-56
2023/03/24 09:14:21;;;;;;;78.63;12.95;;;16.70;86.30;;;;;;5048508;28;20040;-56
2023/03/24 09:16:48;;;;;;;75.60;11.55;;;16.70;86.30;;;;;;5045704;28;20055;-56
2023/03/24 09:19:17;;;;;;;101.80;13.45;;;16.80;87.10;;;;;;5037993;28;20030;-56
2023/03/24 09:21:46;;;;;;;81.72;12.00;;;16.80;87.20;;;;;;5081775;28;20079;-56
2023/03/24 09:24:12;;;;;;;88.65;12.52;;;16.80;86.60;;;;;;5026649;28;20416;-56
2023/03/24 09:26:37;;;;;;;107.80;14.85;;;16.80;86.70;;;;;;5041526;28;20029;-55
2023/03/24 09:29:03;;;;;;;108.10;12.98;;;16.80;87.20;;;;;;5035586;28;20073;-56
2023/03/24 09:31:29;;;;;;;106.03;14.20;;;16.90;87.20;;;;;;5049363;28;20030;-56
2023/03/24 09:33:54;;;;;;;108.70;12.35;;;16.90;87.20;;;;;;5048031;28;20068;-56
2023/03/24 09:36:20;;;;;;;123.40;13.70;;;16.90;87.20;;;;;;5058191;28;20064;-56
2023/03/24 09:38:46;;;;;;;120.40;14.35;;;16.90;87.30;;;;;;5033464;28;20033;-56
2023/03/24 09:41:32;;;;;;;152.75;16.35;;;17.00;87.30;;;;;;5036101;28;20036;-56
2023/03/24 09:43:58;;;;;;;132.90;17.95;;;17.00;87.40;;;;;;5045346;28;20077;-56
2023/03/24 09:46:58;;;;;;;179.32;21.02;;;17.00;87.60;;;;;;5058158;28;20025;-55
2023/03/24 09:49:27;;;;;;;405.77;46.10;;;17.00;88.20;;;;;;5041146;28;20038;-56
2023/03/24 09:52:01;;;;;;;238.15;29.65;;;17.00;88.60;;;;;;5044293;28;20040;-55
2023/03/24 09:54:28;;;;;;;364.00;43.65;;;17.10;88.60;;;;;;5046973;28;20041;-57
2023/03/24 09:56:54;;;;;;;335.23;41.15;;;17.10;88.70;;;;;;5045892;28;20029;-57
2023/03/24 09:59:33;;;;;;;294.30;36.50;;;17.10;88.80;;;;;;5027083;28;20045;-58
2023/03/24 10:01:58;;;;;;;252.15;33.20;;;17.10;88.70;;;;;;5056799;28;20022;-58
2023/03/24 10:04:25;;;;;;;216.90;27.92;;;17.10;88.90;;;;;;5060937;28;20026;-58
2023/03/24 10:07:24;;;;;;;212.60;26.80;;;17.10;89.00;;;;;;5074119;28;20033;-57
2023/03/24 10:09:55;;;;;;;181.90;21.67;;;17.10;89.00;;;;;;5055708;28;20386;-57
2023/03/24 10:12:27;;;;;;;162.02;18.98;;;17.10;89.00;;;;;;5041538;28;20033;-58
2023/03/24 10:15:12;;;;;;;132.30;17.67;;;17.10;88.90;;;;;;5043880;28;20033;-58
2023/03/24 10:17:56;;;;;;;144.57;19.08;;;17.00;88.70;;;;;;5067784;28;20043;-58
2023/03/24 10:21:00;;;;;;;196.90;26.33;;;17.00;88.90;;;;;;5047190;28;20441;-58
2023/03/24 10:24:11;;;;;;;190.20;20.92;;;17.10;89.40;;;;;;5041972;28;20052;-58
2023/03/24 10:26:51;;;;;;;184.65;23.27;;;17.10;89.40;;;;;;5033125;28;20052;-58
2023/03/24 10:29:30;;;;;;;224.35;23.05;;;17.10;89.30;;;;;;5043986;28;20331;-58
2023/03/24 10:32:05;;;;;;;157.02;21.00;;;17.20;89.80;;;;;;5057260;28;20026;-58
2023/03/24 10:34:31;;;;;;;166.30;21.60;;;17.20;89.80;;;;;;5016134;28;20040;-58
2023/03/24 10:36:58;;;;;;;154.00;19.23;;;17.20;89.40;;;;;;5035704;28;20026;-57
2023/03/24 10:39:25;;;;;;;134.95;19.98;;;17.20;89.30;;;;;;5056107;28;20045;-58
2023/03/24 10:41:50;;;;;;;176.52;21.27;;;17.20;89.40;;;;;;5065921;28;20170;-58
2023/03/24 10:44:16;;;;;;;149.55;20.42;;;17.20;89.30;;;;;;5016348;28;20081;-58
2023/03/24 10:46:46;;;;;;;179.20;21.25;;;17.20;89.60;;;;;;5024165;28;20104;-58
2023/03/24 10:49:13;;;;;;;155.48;21.73;;;17.30;89.80;;;;;;5025734;28;20022;-57
2023/03/24 10:51:40;;;;;;;153.10;20.08;;;17.30;90.00;;;;;;5042058;28;20033;-58
2023/03/24 10:54:14;;;;;;;161.50;19.95;;;17.30;90.10;;;;;;5021499;28;20497;-57
2023/03/24 10:56:44;;;;;;;197.10;23.65;;;17.30;89.90;;;;;;5072037;28;20087;-58
2023/03/24 10:59:24;;;;;;;392.05;43.50;;;17.30;90.00;;;;;;5039245;28;20033;-57
2023/03/24 11:01:56;;;;;;;306.30;33.53;;;17.30;90.20;;;;;;5057168;28;20033;-58
2023/03/24 11:04:22;;;;;;;199.38;23.23;;;17.30;90.30;;;;;;5069312;28;20021;-58
2023/03/24 11:07:03;;;;;;;205.55;23.40;;;17.30;90.40;;;;;;5045794;28;20053;-58
2023/03/24 11:09:29;;;;;;;184.90;22.20;;;17.30;90.30;;;;;;5050379;28;20022;-58
2023/03/24 11:11:57;;;;;;;167.52;22.40;;;17.30;90.30;;;;;;5041375;28;20052;-58
2023/03/24 11:14:25;;;;;;;201.10;23.88;;;17.30;90.30;;;;;;5040452;28;20030;-58
2023/03/24 11:16:51;;;;;;;175.52;21.52;;;17.30;90.50;;;;;;5041662;28;20081;-58
2023/03/24 11:19:19;;;;;;;217.38;24.15;;;17.30;90.50;;;;;;5045836;28;20290;-58
2023/03/24 11:21:45;;;;;;;179.13;22.45;;;17.30;90.60;;;;;;5041959;28;20153;-58
2023/03/24 11:24:18;;;;;;;190.77;24.83;;;17.30;90.70;;;;;;5040323;28;20064;-58
2023/03/24 11:26:45;;;;;;;184.10;24.20;;;17.30;90.80;;;;;;5021524;28;20041;-58
2023/03/24 11:29:19;;;;;;;285.38;32.17;;;17.40;90.80;;;;;;5055369;28;20056;-58
2023/03/24 11:31:52;;;;;;;219.82;24.42;;;17.40;90.80;;;;;;5046464;28;20037;-58
2023/03/24 11:34:25;;;;;;;191.35;21.52;;;17.40;90.90;;;;;;5054832;28;20385;-58
2023/03/24 11:36:55;;;;;;;132.43;17.33;;;17.40;90.70;;;;;;5046978;28;20025;-58
2023/03/24 11:39:39;;;;;;;179.90;22.85;;;17.40;90.50;;;;;;5044795;28;20036;-58
2023/03/24 11:42:10;;;;;;;174.25;22.63;;;17.40;90.60;;;;;;5031149;28;20036;-58
2023/03/24 11:44:47;;;;;;;129.77;19.25;;;17.50;90.60;;;;;;5041150;28;20089;-58
2023/03/24 11:47:23;;;;;;;146.18;18.40;;;17.40;90.60;;;;;;5022430;28;20181;-58
2023/03/24 11:50:10;;;;;;;152.38;19.52;;;17.40;90.50;;;;;;5059873;28;20067;-58
2023/03/24 11:52:36;;;;;;;145.55;17.77;;;17.50;90.50;;;;;;5051353;28;20366;-58
2023/03/24 11:55:03;;;;;;;162.73;18.85;;;17.40;90.40;;;;;;5053613;28;21358;-59
2023/03/24 11:57:40;;;;;;;170.38;21.20;;;17.50;90.40;;;;;;5020423;28;20035;-57
2023/03/24 12:00:23;;;;;;;154.77;20.23;;;17.50;90.60;;;;;;5042598;28;20030;-58
2023/03/24 12:02:58;;;;;;;164.00;20.83;;;17.50;90.80;;;;;;5040128;28;20041;-58
2023/03/24 12:05:35;;;;;;;;;;;17.50;91.00;;;;;;5037851;28;20046;-58
2023/03/24 12:08:19;;;;;;;155.30;18.65;;;17.50;90.80;;;;;;5074758;28;19909;-57
2023/03/24 12:10:48;;;;;;;178.70;19.15;;;17.40;90.70;;;;;;5056898;28;20037;-58
2023/03/24 12:13:15;;;;;;;92.85;13.88;;;17.40;90.70;;;;;;5045059;28;20091;-58
2023/03/24 12:15:53;;;;;;;148.18;14.85;;;17.40;90.40;;;;;;5040582;28;20073;-58
2023/03/24 12:18:46;;;;;;;102.15;13.10;;;17.30;90.20;;;;;;5041223;28;20038;-58
2023/03/24 12:21:18;;;;;;;87.20;13.57;;;17.30;90.20;;;;;;5036226;28;20029;-58
2023/03/24 12:24:08;;;;;;;108.10;14.70;;;17.30;90.30;;;;;;5040753;28;20029;-58
2023/03/24 12:26:33;;;;;;;109.13;14.35;;;17.30;90.50;;;;;;5018417;28;20470;-58
2023/03/24 12:29:22;;;;;;;76.60;11.30;;;17.30;90.40;;;;;;5034591;28;20041;-58
2023/03/24 12:31:56;;;;;;;114.78;14.02;;;17.20;90.20;;;;;;5039143;28;20033;-58
2023/03/24 12:35:03;;;;;;;70.75;11.07;;;17.20;90.20;;;;;;5020711;28;20029;-58
2023/03/24 12:37:43;;;;;;;134.50;14.60;;;17.20;90.20;;;;;;5049412;28;20095;-59
2023/03/24 12:40:46;;;;;;;80.68;11.43;;;17.20;90.10;;;;;;5040607;28;20152;-59
2023/03/24 12:43:24;;;;;;;87.57;9.30;;;17.20;90.20;;;;;;5040226;28;20029;-59
2023/03/24 12:45:54;;;;;;;122.07;13.02;;;17.20;89.70;;;;;;5040209;28;20029;-58
2023/03/24 12:48:40;;;;;;;84.45;10.80;;;17.10;89.60;;;;;;5039519;28;20068;-59
2023/03/24 12:51:25;;;;;;;86.97;10.90;;;17.10;90.00;;;;;;5040143;28;20060;-58